sensor_id;sensor_type;location;lat;lon;timestamp;P1;durP1;ratioP1;P2;durP2;ratioP2
1591;SDS011;789;51.612;7.510;2022-12-18T00:00:07;60.30;;;36.17;;
1591;SDS011;789;51.612;7.510;2022-12-18T00:02:34;62.30;;;33.33;;
1591;SDS011;789;51.612;7.510;2022-12-18T00:05:01;57.88;;;33.92;;
1591;SDS011;789;51.612;7.510;2022-12-18T00:07:28;57.60;;;34.30;;
1591;SDS011;789;51.612;7.510;2022-12-18T00:09:55;59.75;;;35.35;;
1591;SDS011;789;51.612;7.510;2022-12-18T00:12:21;59.53;;;33.72;;
1591;SDS011;789;51.612;7.510;2022-12-18T00:14:48;65.32;;;36.50;;
1591;SDS011;789;51.612;7.510;2022-12-18T00:17:16;60.13;;;33.90;;
1591;SDS011;789;51.612;7.510;2022-12-18T00:19:43;63.60;;;34.65;;
1591;SDS011;789;51.612;7.510;2022-12-18T00:22:10;56.97;;;33.90;;
1591;SDS011;789;51.612;7.510;2022-12-18T00:24:36;53.13;;;32.45;;
1591;SDS011;789;51.612;7.510;2022-12-18T00:27:03;54.42;;;33.33;;
1591;SDS011;789;51.612;7.510;2022-12-18T00:29:30;56.72;;;33.13;;
1591;SDS011;789;51.612;7.510;2022-12-18T00:31:57;61.83;;;33.75;;
1591;SDS011;789;51.612;7.510;2022-12-18T00:34:25;55.10;;;31.75;;
1591;SDS011;789;51.612;7.510;2022-12-18T00:36:51;52.72;;;32.20;;
1591;SDS011;789;51.612;7.510;2022-12-18T00:39:18;56.10;;;33.53;;
1591;SDS011;789;51.612;7.510;2022-12-18T00:41:45;57.67;;;34.28;;
1591;SDS011;789;51.612;7.510;2022-12-18T00:44:30;58.65;;;32.85;;
1591;SDS011;789;51.612;7.510;2022-12-18T00:46:56;55.28;;;33.05;;
1591;SDS011;789;51.612;7.510;2022-12-18T00:49:24;51.83;;;31.35;;
1591;SDS011;789;51.612;7.510;2022-12-18T00:51:51;53.42;;;30.52;;
1591;SDS011;789;51.612;7.510;2022-12-18T00:54:18;56.22;;;33.20;;
1591;SDS011;789;51.612;7.510;2022-12-18T00:56:45;49.47;;;31.55;;
1591;SDS011;789;51.612;7.510;2022-12-18T00:59:11;60.22;;;33.38;;
1591;SDS011;789;51.612;7.510;2022-12-18T01:01:38;60.05;;;33.65;;
1591;SDS011;789;51.612;7.510;2022-12-18T01:04:05;54.35;;;33.22;;
1591;SDS011;789;51.612;7.510;2022-12-18T01:06:33;57.38;;;32.55;;
1591;SDS011;789;51.612;7.510;2022-12-18T01:09:00;58.42;;;33.83;;
1591;SDS011;789;51.612;7.510;2022-12-18T01:11:27;55.33;;;32.88;;
1591;SDS011;789;51.612;7.510;2022-12-18T01:13:54;50.15;;;31.67;;
1591;SDS011;789;51.612;7.510;2022-12-18T01:16:21;57.55;;;33.92;;
1591;SDS011;789;51.612;7.510;2022-12-18T01:18:50;50.45;;;29.83;;
1591;SDS011;789;51.612;7.510;2022-12-18T01:21:18;49.90;;;31.70;;
1591;SDS011;789;51.612;7.510;2022-12-18T01:23:46;52.55;;;32.42;;
1591;SDS011;789;51.612;7.510;2022-12-18T01:26:16;55.28;;;31.40;;
1591;SDS011;789;51.612;7.510;2022-12-18T01:28:43;52.65;;;30.98;;
1591;SDS011;789;51.612;7.510;2022-12-18T01:31:15;50.20;;;32.55;;
1591;SDS011;789;51.612;7.510;2022-12-18T01:33:44;61.42;;;32.03;;
1591;SDS011;789;51.612;7.510;2022-12-18T01:36:15;58.15;;;31.52;;
1591;SDS011;789;51.612;7.510;2022-12-18T01:38:43;51.50;;;31.05;;
1591;SDS011;789;51.612;7.510;2022-12-18T01:41:11;54.92;;;31.10;;
1591;SDS011;789;51.612;7.510;2022-12-18T01:43:46;52.05;;;31.00;;
1591;SDS011;789;51.612;7.510;2022-12-18T01:46:15;48.40;;;29.58;;
1591;SDS011;789;51.612;7.510;2022-12-18T01:48:42;48.95;;;30.73;;
1591;SDS011;789;51.612;7.510;2022-12-18T01:51:10;55.55;;;31.98;;
1591;SDS011;789;51.612;7.510;2022-12-18T01:53:39;51.05;;;32.85;;
1591;SDS011;789;51.612;7.510;2022-12-18T01:56:08;53.55;;;31.30;;
1591;SDS011;789;51.612;7.510;2022-12-18T01:58:41;48.47;;;29.50;;
1591;SDS011;789;51.612;7.510;2022-12-18T02:01:14;52.97;;;29.90;;
1591;SDS011;789;51.612;7.510;2022-12-18T02:03:41;54.85;;;30.45;;
1591;SDS011;789;51.612;7.510;2022-12-18T02:06:10;53.13;;;29.67;;
1591;SDS011;789;51.612;7.510;2022-12-18T02:08:43;53.40;;;30.15;;
1591;SDS011;789;51.612;7.510;2022-12-18T02:11:17;52.42;;;31.02;;
1591;SDS011;789;51.612;7.510;2022-12-18T02:13:55;52.88;;;30.80;;
1591;SDS011;789;51.612;7.510;2022-12-18T02:16:29;49.85;;;30.90;;
1591;SDS011;789;51.612;7.510;2022-12-18T02:19:04;51.17;;;31.02;;
1591;SDS011;789;51.612;7.510;2022-12-18T02:21:44;54.85;;;29.77;;
1591;SDS011;789;51.612;7.510;2022-12-18T02:24:17;47.53;;;29.40;;
1591;SDS011;789;51.612;7.510;2022-12-18T02:26:55;51.78;;;30.65;;
1591;SDS011;789;51.612;7.510;2022-12-18T02:29:25;53.33;;;29.38;;
1591;SDS011;789;51.612;7.510;2022-12-18T02:31:56;51.15;;;28.83;;
1591;SDS011;789;51.612;7.510;2022-12-18T02:34:26;51.47;;;30.67;;
1591;SDS011;789;51.612;7.510;2022-12-18T02:36:57;54.33;;;31.52;;
1591;SDS011;789;51.612;7.510;2022-12-18T02:39:26;48.03;;;29.67;;
1591;SDS011;789;51.612;7.510;2022-12-18T02:41:56;53.05;;;29.27;;
1591;SDS011;789;51.612;7.510;2022-12-18T02:44:23;53.83;;;29.13;;
1591;SDS011;789;51.612;7.510;2022-12-18T02:46:51;48.05;;;30.13;;
1591;SDS011;789;51.612;7.510;2022-12-18T02:49:22;58.10;;;29.48;;
1591;SDS011;789;51.612;7.510;2022-12-18T02:52:00;47.70;;;27.85;;
1591;SDS011;789;51.612;7.510;2022-12-18T02:54:35;44.92;;;29.02;;
1591;SDS011;789;51.612;7.510;2022-12-18T02:57:14;50.75;;;28.80;;
1591;SDS011;789;51.612;7.510;2022-12-18T02:59:48;49.30;;;30.30;;
1591;SDS011;789;51.612;7.510;2022-12-18T03:02:23;52.10;;;29.83;;
1591;SDS011;789;51.612;7.510;2022-12-18T03:04:56;52.80;;;30.60;;
1591;SDS011;789;51.612;7.510;2022-12-18T03:07:27;51.75;;;29.13;;
1591;SDS011;789;51.612;7.510;2022-12-18T03:10:01;53.28;;;30.67;;
1591;SDS011;789;51.612;7.510;2022-12-18T03:12:31;47.75;;;27.35;;
1591;SDS011;789;51.612;7.510;2022-12-18T03:15:02;50.28;;;28.98;;
1591;SDS011;789;51.612;7.510;2022-12-18T03:17:33;53.25;;;31.42;;
1591;SDS011;789;51.612;7.510;2022-12-18T03:20:03;52.17;;;29.88;;
1591;SDS011;789;51.612;7.510;2022-12-18T03:22:33;50.10;;;29.48;;
1591;SDS011;789;51.612;7.510;2022-12-18T03:25:02;49.83;;;29.42;;
1591;SDS011;789;51.612;7.510;2022-12-18T03:27:33;50.97;;;32.28;;
1591;SDS011;789;51.612;7.510;2022-12-18T03:30:05;48.78;;;29.85;;
1591;SDS011;789;51.612;7.510;2022-12-18T03:32:36;48.42;;;28.55;;
1591;SDS011;789;51.612;7.510;2022-12-18T03:35:08;49.28;;;29.40;;
1591;SDS011;789;51.612;7.510;2022-12-18T03:37:37;46.28;;;29.20;;
1591;SDS011;789;51.612;7.510;2022-12-18T03:40:05;50.17;;;28.15;;
1591;SDS011;789;51.612;7.510;2022-12-18T03:42:35;46.33;;;28.98;;
1591;SDS011;789;51.612;7.510;2022-12-18T03:45:11;52.22;;;28.95;;
1591;SDS011;789;51.612;7.510;2022-12-18T03:47:47;47.10;;;27.58;;
1591;SDS011;789;51.612;7.510;2022-12-18T03:50:25;47.33;;;28.52;;
1591;SDS011;789;51.612;7.510;2022-12-18T03:52:58;51.92;;;29.13;;
1591;SDS011;789;51.612;7.510;2022-12-18T03:55:32;53.17;;;29.73;;
1591;SDS011;789;51.612;7.510;2022-12-18T03:58:01;54.95;;;31.50;;
1591;SDS011;789;51.612;7.510;2022-12-18T04:00:30;47.35;;;27.75;;
1591;SDS011;789;51.612;7.510;2022-12-18T04:02:59;51.53;;;31.08;;
1591;SDS011;789;51.612;7.510;2022-12-18T04:05:27;47.63;;;27.63;;
1591;SDS011;789;51.612;7.510;2022-12-18T04:07:56;47.78;;;26.75;;
1591;SDS011;789;51.612;7.510;2022-12-18T04:10:23;50.63;;;28.73;;
1591;SDS011;789;51.612;7.510;2022-12-18T04:12:49;48.60;;;28.85;;
1591;SDS011;789;51.612;7.510;2022-12-18T04:15:18;45.58;;;29.00;;
1591;SDS011;789;51.612;7.510;2022-12-18T04:17:46;49.60;;;30.75;;
1591;SDS011;789;51.612;7.510;2022-12-18T04:20:14;49.97;;;28.65;;
1591;SDS011;789;51.612;7.510;2022-12-18T04:22:41;47.55;;;28.88;;
1591;SDS011;789;51.612;7.510;2022-12-18T04:25:08;49.55;;;29.50;;
1591;SDS011;789;51.612;7.510;2022-12-18T04:27:35;47.45;;;26.60;;
1591;SDS011;789;51.612;7.510;2022-12-18T04:30:02;48.53;;;28.73;;
1591;SDS011;789;51.612;7.510;2022-12-18T04:32:31;53.97;;;29.10;;
1591;SDS011;789;51.612;7.510;2022-12-18T04:34:59;52.78;;;28.63;;
1591;SDS011;789;51.612;7.510;2022-12-18T04:37:26;47.63;;;27.83;;
1591;SDS011;789;51.612;7.510;2022-12-18T04:39:52;52.25;;;28.75;;
1591;SDS011;789;51.612;7.510;2022-12-18T04:42:19;45.95;;;27.00;;
1591;SDS011;789;51.612;7.510;2022-12-18T04:44:46;52.70;;;30.40;;
1591;SDS011;789;51.612;7.510;2022-12-18T04:47:13;48.25;;;28.80;;
1591;SDS011;789;51.612;7.510;2022-12-18T04:49:41;50.90;;;28.10;;
1591;SDS011;789;51.612;7.510;2022-12-18T04:52:07;53.35;;;28.17;;
1591;SDS011;789;51.612;7.510;2022-12-18T04:54:34;47.67;;;27.05;;
1591;SDS011;789;51.612;7.510;2022-12-18T04:57:01;40.63;;;25.90;;
1591;SDS011;789;51.612;7.510;2022-12-18T04:59:28;48.75;;;27.70;;
1591;SDS011;789;51.612;7.510;2022-12-18T05:01:54;41.38;;;26.52;;
1591;SDS011;789;51.612;7.510;2022-12-18T05:04:21;42.13;;;26.02;;
1591;SDS011;789;51.612;7.510;2022-12-18T05:06:49;43.83;;;27.15;;
1591;SDS011;789;51.612;7.510;2022-12-18T05:09:16;45.40;;;26.83;;
1591;SDS011;789;51.612;7.510;2022-12-18T05:11:42;45.95;;;27.20;;
1591;SDS011;789;51.612;7.510;2022-12-18T05:14:09;44.25;;;26.13;;
1591;SDS011;789;51.612;7.510;2022-12-18T05:16:36;43.67;;;27.23;;
1591;SDS011;789;51.612;7.510;2022-12-18T05:19:03;45.90;;;26.08;;
1591;SDS011;789;51.612;7.510;2022-12-18T05:21:29;40.92;;;24.65;;
1591;SDS011;789;51.612;7.510;2022-12-18T05:23:57;38.40;;;23.55;;
1591;SDS011;789;51.612;7.510;2022-12-18T05:26:24;44.47;;;27.00;;
1591;SDS011;789;51.612;7.510;2022-12-18T05:28:51;43.78;;;26.23;;
1591;SDS011;789;51.612;7.510;2022-12-18T05:31:17;44.63;;;26.52;;
1591;SDS011;789;51.612;7.510;2022-12-18T05:33:44;41.63;;;25.20;;
1591;SDS011;789;51.612;7.510;2022-12-18T05:36:11;42.10;;;24.20;;
1591;SDS011;789;51.612;7.510;2022-12-18T05:38:38;50.85;;;25.73;;
1591;SDS011;789;51.612;7.510;2022-12-18T05:41:07;43.00;;;24.40;;
1591;SDS011;789;51.612;7.510;2022-12-18T05:43:35;45.53;;;26.02;;
1591;SDS011;789;51.612;7.510;2022-12-18T05:46:03;44.83;;;26.83;;
1591;SDS011;789;51.612;7.510;2022-12-18T05:48:31;40.92;;;24.95;;
1591;SDS011;789;51.612;7.510;2022-12-18T05:51:02;40.40;;;24.45;;
1591;SDS011;789;51.612;7.510;2022-12-18T05:53:30;43.53;;;25.08;;
1591;SDS011;789;51.612;7.510;2022-12-18T05:55:59;41.28;;;24.30;;
1591;SDS011;789;51.612;7.510;2022-12-18T05:58:28;41.90;;;23.77;;
1591;SDS011;789;51.612;7.510;2022-12-18T06:00:55;45.10;;;25.85;;
1591;SDS011;789;51.612;7.510;2022-12-18T06:03:22;44.97;;;25.33;;
1591;SDS011;789;51.612;7.510;2022-12-18T06:05:49;46.55;;;26.33;;
1591;SDS011;789;51.612;7.510;2022-12-18T06:08:16;44.67;;;24.02;;
1591;SDS011;789;51.612;7.510;2022-12-18T06:10:49;41.85;;;26.48;;
1591;SDS011;789;51.612;7.510;2022-12-18T06:13:17;42.10;;;25.00;;
1591;SDS011;789;51.612;7.510;2022-12-18T06:15:46;48.10;;;25.05;;
1591;SDS011;789;51.612;7.510;2022-12-18T06:18:13;40.65;;;25.73;;
1591;SDS011;789;51.612;7.510;2022-12-18T06:20:39;41.75;;;25.67;;
1591;SDS011;789;51.612;7.510;2022-12-18T06:23:06;46.63;;;26.45;;
1591;SDS011;789;51.612;7.510;2022-12-18T06:25:33;44.97;;;27.70;;
1591;SDS011;789;51.612;7.510;2022-12-18T06:28:03;44.03;;;24.77;;
1591;SDS011;789;51.612;7.510;2022-12-18T06:30:30;42.42;;;23.45;;
1591;SDS011;789;51.612;7.510;2022-12-18T06:32:58;41.22;;;24.42;;
1591;SDS011;789;51.612;7.510;2022-12-18T06:35:24;35.55;;;23.67;;
1591;SDS011;789;51.612;7.510;2022-12-18T06:37:51;45.97;;;26.50;;
1591;SDS011;789;51.612;7.510;2022-12-18T06:40:18;37.55;;;23.20;;
1591;SDS011;789;51.612;7.510;2022-12-18T06:42:44;39.13;;;23.08;;
1591;SDS011;789;51.612;7.510;2022-12-18T06:45:11;40.20;;;23.42;;
1591;SDS011;789;51.612;7.510;2022-12-18T06:47:38;41.40;;;23.35;;
1591;SDS011;789;51.612;7.510;2022-12-18T06:50:07;38.50;;;23.50;;
1591;SDS011;789;51.612;7.510;2022-12-18T06:52:33;40.03;;;24.02;;
1591;SDS011;789;51.612;7.510;2022-12-18T06:55:01;42.88;;;22.33;;
1591;SDS011;789;51.612;7.510;2022-12-18T06:57:29;39.67;;;23.45;;
1591;SDS011;789;51.612;7.510;2022-12-18T06:59:55;46.40;;;25.08;;
1591;SDS011;789;51.612;7.510;2022-12-18T07:02:22;43.20;;;24.67;;
1591;SDS011;789;51.612;7.510;2022-12-18T07:04:49;36.47;;;23.10;;
1591;SDS011;789;51.612;7.510;2022-12-18T07:07:17;33.67;;;21.67;;
1591;SDS011;789;51.612;7.510;2022-12-18T07:09:44;41.10;;;21.98;;
1591;SDS011;789;51.612;7.510;2022-12-18T07:12:10;37.58;;;22.10;;
1591;SDS011;789;51.612;7.510;2022-12-18T07:14:37;40.20;;;21.73;;
1591;SDS011;789;51.612;7.510;2022-12-18T07:17:04;37.28;;;21.77;;
1591;SDS011;789;51.612;7.510;2022-12-18T07:19:31;37.90;;;22.30;;
1591;SDS011;789;51.612;7.510;2022-12-18T07:21:57;33.05;;;20.90;;
1591;SDS011;789;51.612;7.510;2022-12-18T07:24:25;39.50;;;20.80;;
1591;SDS011;789;51.612;7.510;2022-12-18T07:26:53;33.95;;;19.95;;
1591;SDS011;789;51.612;7.510;2022-12-18T07:29:19;32.55;;;19.08;;
1591;SDS011;789;51.612;7.510;2022-12-18T07:31:46;32.22;;;19.67;;
1591;SDS011;789;51.612;7.510;2022-12-18T07:34:13;30.92;;;18.00;;
1591;SDS011;789;51.612;7.510;2022-12-18T07:36:40;29.08;;;18.00;;
1591;SDS011;789;51.612;7.510;2022-12-18T07:39:07;29.92;;;18.90;;
1591;SDS011;789;51.612;7.510;2022-12-18T07:41:35;31.60;;;18.25;;
1591;SDS011;789;51.612;7.510;2022-12-18T07:44:02;30.15;;;18.08;;
1591;SDS011;789;51.612;7.510;2022-12-18T07:46:29;30.15;;;16.38;;
1591;SDS011;789;51.612;7.510;2022-12-18T07:48:56;27.02;;;16.13;;
1591;SDS011;789;51.612;7.510;2022-12-18T07:51:22;24.48;;;15.70;;
1591;SDS011;789;51.612;7.510;2022-12-18T07:53:49;25.90;;;16.00;;
1591;SDS011;789;51.612;7.510;2022-12-18T07:56:16;31.13;;;17.40;;
1591;SDS011;789;51.612;7.510;2022-12-18T07:58:44;29.52;;;18.33;;
1591;SDS011;789;51.612;7.510;2022-12-18T08:01:14;26.58;;;15.02;;
1591;SDS011;789;51.612;7.510;2022-12-18T08:03:40;26.58;;;16.58;;
1591;SDS011;789;51.612;7.510;2022-12-18T08:06:08;22.75;;;15.70;;
1591;SDS011;789;51.612;7.510;2022-12-18T08:08:36;25.10;;;15.55;;
1591;SDS011;789;51.612;7.510;2022-12-18T08:11:03;28.30;;;16.23;;
1591;SDS011;789;51.612;7.510;2022-12-18T08:13:29;28.02;;;15.45;;
1591;SDS011;789;51.612;7.510;2022-12-18T08:15:58;22.73;;;15.45;;
1591;SDS011;789;51.612;7.510;2022-12-18T08:18:26;26.27;;;14.73;;
1591;SDS011;789;51.612;7.510;2022-12-18T08:20:53;23.65;;;15.73;;
1591;SDS011;789;51.612;7.510;2022-12-18T08:23:20;27.45;;;16.48;;
1591;SDS011;789;51.612;7.510;2022-12-18T08:25:47;22.38;;;16.08;;
1591;SDS011;789;51.612;7.510;2022-12-18T08:28:14;23.95;;;16.13;;
1591;SDS011;789;51.612;7.510;2022-12-18T08:30:41;32.20;;;18.38;;
1591;SDS011;789;51.612;7.510;2022-12-18T08:33:09;32.35;;;19.33;;
1591;SDS011;789;51.612;7.510;2022-12-18T08:35:36;35.83;;;21.23;;
1591;SDS011;789;51.612;7.510;2022-12-18T08:38:03;36.90;;;22.33;;
1591;SDS011;789;51.612;7.510;2022-12-18T08:40:30;41.05;;;24.40;;
1591;SDS011;789;51.612;7.510;2022-12-18T08:42:57;37.25;;;24.45;;
1591;SDS011;789;51.612;7.510;2022-12-18T08:45:41;33.03;;;21.00;;
1591;SDS011;789;51.612;7.510;2022-12-18T08:48:09;34.28;;;22.33;;
1591;SDS011;789;51.612;7.510;2022-12-18T08:50:36;29.65;;;19.80;;
1591;SDS011;789;51.612;7.510;2022-12-18T08:53:03;20.30;;;14.20;;
1591;SDS011;789;51.612;7.510;2022-12-18T08:55:30;20.23;;;15.20;;
1591;SDS011;789;51.612;7.510;2022-12-18T08:57:56;16.50;;;14.20;;
1591;SDS011;789;51.612;7.510;2022-12-18T09:00:23;19.10;;;13.93;;
1591;SDS011;789;51.612;7.510;2022-12-18T09:02:50;18.47;;;14.30;;
1591;SDS011;789;51.612;7.510;2022-12-18T09:05:18;26.03;;;18.53;;
1591;SDS011;789;51.612;7.510;2022-12-18T09:07:45;25.87;;;18.77;;
1591;SDS011;789;51.612;7.510;2022-12-18T09:10:11;20.00;;;14.20;;
1591;SDS011;789;51.612;7.510;2022-12-18T09:12:38;19.37;;;13.53;;
1591;SDS011;789;51.612;7.510;2022-12-18T09:15:05;19.30;;;14.57;;
1591;SDS011;789;51.612;7.510;2022-12-18T09:17:32;16.70;;;12.67;;
1591;SDS011;789;51.612;7.510;2022-12-18T09:19:59;19.30;;;14.77;;
1591;SDS011;789;51.612;7.510;2022-12-18T09:22:27;17.67;;;14.30;;
1591;SDS011;789;51.612;7.510;2022-12-18T09:24:54;17.50;;;14.10;;
1591;SDS011;789;51.612;7.510;2022-12-18T09:27:20;19.40;;;15.37;;
1591;SDS011;789;51.612;7.510;2022-12-18T09:29:47;16.90;;;14.83;;
1591;SDS011;789;51.612;7.510;2022-12-18T09:32:14;21.53;;;16.13;;
1591;SDS011;789;51.612;7.510;2022-12-18T09:34:41;17.47;;;15.50;;
1591;SDS011;789;51.612;7.510;2022-12-18T09:37:07;18.60;;;15.40;;
1591;SDS011;789;51.612;7.510;2022-12-18T09:39:35;15.27;;;13.13;;
1591;SDS011;789;51.612;7.510;2022-12-18T09:42:02;19.80;;;14.97;;
1591;SDS011;789;51.612;7.510;2022-12-18T09:44:31;19.97;;;15.57;;
1591;SDS011;789;51.612;7.510;2022-12-18T09:47:03;19.20;;;16.17;;
1591;SDS011;789;51.612;7.510;2022-12-18T09:49:35;16.97;;;12.33;;
1591;SDS011;789;51.612;7.510;2022-12-18T09:52:08;17.20;;;12.83;;
1591;SDS011;789;51.612;7.510;2022-12-18T09:54:40;18.00;;;12.83;;
1591;SDS011;789;51.612;7.510;2022-12-18T09:57:10;17.63;;;14.27;;
1591;SDS011;789;51.612;7.510;2022-12-18T09:59:40;15.70;;;12.97;;
1591;SDS011;789;51.612;7.510;2022-12-18T10:02:14;16.13;;;12.77;;
1591;SDS011;789;51.612;7.510;2022-12-18T10:04:42;14.50;;;12.00;;
1591;SDS011;789;51.612;7.510;2022-12-18T10:07:10;15.27;;;12.00;;
1591;SDS011;789;51.612;7.510;2022-12-18T10:09:48;13.50;;;11.70;;
1591;SDS011;789;51.612;7.510;2022-12-18T10:12:23;14.10;;;11.43;;
1591;SDS011;789;51.612;7.510;2022-12-18T10:14:57;13.70;;;11.93;;
1591;SDS011;789;51.612;7.510;2022-12-18T10:17:32;15.00;;;12.47;;
1591;SDS011;789;51.612;7.510;2022-12-18T10:20:05;14.60;;;12.30;;
1591;SDS011;789;51.612;7.510;2022-12-18T10:22:41;14.33;;;12.80;;
1591;SDS011;789;51.612;7.510;2022-12-18T10:25:21;15.33;;;13.67;;
1591;SDS011;789;51.612;7.510;2022-12-18T10:27:51;15.97;;;12.30;;
1591;SDS011;789;51.612;7.510;2022-12-18T10:30:21;13.57;;;11.10;;
1591;SDS011;789;51.612;7.510;2022-12-18T10:32:49;12.57;;;11.23;;
1591;SDS011;789;51.612;7.510;2022-12-18T10:35:18;13.40;;;10.83;;
1591;SDS011;789;51.612;7.510;2022-12-18T10:40:47;15.67;;;11.57;;
1591;SDS011;789;51.612;7.510;2022-12-18T10:43:16;13.60;;;11.70;;
1591;SDS011;789;51.612;7.510;2022-12-18T10:45:57;13.97;;;11.03;;
1591;SDS011;789;51.612;7.510;2022-12-18T10:48:26;15.83;;;11.93;;
1591;SDS011;789;51.612;7.510;2022-12-18T10:50:53;17.27;;;12.80;;
1591;SDS011;789;51.612;7.510;2022-12-18T10:53:22;14.50;;;11.87;;
1591;SDS011;789;51.612;7.510;2022-12-18T10:55:52;19.80;;;11.60;;
1591;SDS011;789;51.612;7.510;2022-12-18T10:58:22;16.23;;;11.10;;
1591;SDS011;789;51.612;7.510;2022-12-18T11:01:01;13.90;;;10.67;;
1591;SDS011;789;51.612;7.510;2022-12-18T11:03:32;14.90;;;10.27;;
1591;SDS011;789;51.612;7.510;2022-12-18T11:06:02;13.03;;;10.57;;
1591;SDS011;789;51.612;7.510;2022-12-18T11:08:30;14.77;;;10.30;;
1591;SDS011;789;51.612;7.510;2022-12-18T11:10:59;14.37;;;11.00;;
1591;SDS011;789;51.612;7.510;2022-12-18T11:13:26;14.53;;;10.60;;
1591;SDS011;789;51.612;7.510;2022-12-18T11:15:55;12.40;;;10.03;;
1591;SDS011;789;51.612;7.510;2022-12-18T11:18:24;14.60;;;10.50;;
1591;SDS011;789;51.612;7.510;2022-12-18T11:20:53;16.20;;;9.97;;
1591;SDS011;789;51.612;7.510;2022-12-18T11:23:22;13.40;;;10.67;;
1591;SDS011;789;51.612;7.510;2022-12-18T11:25:50;13.13;;;9.97;;
1591;SDS011;789;51.612;7.510;2022-12-18T11:28:27;14.93;;;10.10;;
1591;SDS011;789;51.612;7.510;2022-12-18T11:31:09;12.30;;;9.70;;
1591;SDS011;789;51.612;7.510;2022-12-18T11:33:53;12.80;;;10.10;;
1591;SDS011;789;51.612;7.510;2022-12-18T11:36:24;12.70;;;9.60;;
1591;SDS011;789;51.612;7.510;2022-12-18T11:38:55;15.47;;;10.53;;
1591;SDS011;789;51.612;7.510;2022-12-18T11:41:26;11.77;;;8.87;;
1591;SDS011;789;51.612;7.510;2022-12-18T11:44:13;10.67;;;8.40;;
1591;SDS011;789;51.612;7.510;2022-12-18T11:46:45;13.80;;;9.97;;
1591;SDS011;789;51.612;7.510;2022-12-18T11:49:17;12.03;;;9.13;;
1591;SDS011;789;51.612;7.510;2022-12-18T11:51:49;15.47;;;10.13;;
1591;SDS011;789;51.612;7.510;2022-12-18T11:54:19;16.00;;;11.00;;
1591;SDS011;789;51.612;7.510;2022-12-18T11:56:47;16.03;;;9.87;;
1591;SDS011;789;51.612;7.510;2022-12-18T11:59:19;16.30;;;11.20;;
1591;SDS011;789;51.612;7.510;2022-12-18T12:01:56;17.30;;;10.60;;
1591;SDS011;789;51.612;7.510;2022-12-18T12:04:36;13.47;;;10.40;;
1591;SDS011;789;51.612;7.510;2022-12-18T12:07:24;13.57;;;10.40;;
1591;SDS011;789;51.612;7.510;2022-12-18T12:10:03;15.30;;;10.40;;
1591;SDS011;789;51.612;7.510;2022-12-18T12:12:45;11.00;;;9.23;;
1591;SDS011;789;51.612;7.510;2022-12-18T12:15:29;17.30;;;10.60;;
1591;SDS011;789;51.612;7.510;2022-12-18T12:18:07;18.67;;;11.00;;
1591;SDS011;789;51.612;7.510;2022-12-18T12:20:44;15.77;;;11.23;;
1591;SDS011;789;51.612;7.510;2022-12-18T12:23:19;15.63;;;11.73;;
1591;SDS011;789;51.612;7.510;2022-12-18T12:25:54;13.90;;;9.97;;
1591;SDS011;789;51.612;7.510;2022-12-18T12:28:31;17.50;;;11.93;;
1591;SDS011;789;51.612;7.510;2022-12-18T12:31:17;16.90;;;11.80;;
1591;SDS011;789;51.612;7.510;2022-12-18T12:33:57;15.90;;;12.43;;
1591;SDS011;789;51.612;7.510;2022-12-18T12:36:34;20.20;;;12.95;;
1591;SDS011;789;51.612;7.510;2022-12-18T12:39:10;16.00;;;11.63;;
1591;SDS011;789;51.612;7.510;2022-12-18T12:41:41;16.70;;;11.40;;
1591;SDS011;789;51.612;7.510;2022-12-18T12:44:30;16.43;;;12.17;;
1591;SDS011;789;51.612;7.510;2022-12-18T12:47:04;13.60;;;11.00;;
1591;SDS011;789;51.612;7.510;2022-12-18T12:49:37;13.53;;;10.77;;
1591;SDS011;789;51.612;7.510;2022-12-18T12:52:06;15.37;;;11.10;;
1591;SDS011;789;51.612;7.510;2022-12-18T12:54:37;16.07;;;11.67;;
1591;SDS011;789;51.612;7.510;2022-12-18T12:57:05;15.53;;;11.70;;
1591;SDS011;789;51.612;7.510;2022-12-18T12:59:41;15.52;;;10.75;;
1591;SDS011;789;51.612;7.510;2022-12-18T13:02:20;16.00;;;12.10;;
1591;SDS011;789;51.612;7.510;2022-12-18T13:04:52;14.43;;;11.10;;
1591;SDS011;789;51.612;7.510;2022-12-18T13:07:27;14.47;;;11.23;;
1591;SDS011;789;51.612;7.510;2022-12-18T13:12:59;19.20;;;12.63;;
1591;SDS011;789;51.612;7.510;2022-12-18T13:15:29;19.20;;;13.10;;
1591;SDS011;789;51.612;7.510;2022-12-18T13:18:10;16.30;;;11.40;;
1591;SDS011;789;51.612;7.510;2022-12-18T13:20:43;15.60;;;11.33;;
1591;SDS011;789;51.612;7.510;2022-12-18T13:23:31;21.30;;;14.37;;
1591;SDS011;789;51.612;7.510;2022-12-18T13:26:00;18.77;;;13.50;;
1591;SDS011;789;51.612;7.510;2022-12-18T13:28:57;21.00;;;14.27;;
1591;SDS011;789;51.612;7.510;2022-12-18T13:34:26;20.87;;;13.60;;
1591;SDS011;789;51.612;7.510;2022-12-18T13:36:56;19.97;;;14.23;;
1591;SDS011;789;51.612;7.510;2022-12-18T13:39:43;16.03;;;12.57;;
1591;SDS011;789;51.612;7.510;2022-12-18T13:42:31;17.00;;;12.13;;
1591;SDS011;789;51.612;7.510;2022-12-18T13:45:35;16.73;;;12.07;;
1591;SDS011;789;51.612;7.510;2022-12-18T13:48:04;16.27;;;11.80;;
1591;SDS011;789;51.612;7.510;2022-12-18T13:50:41;22.97;;;15.90;;
1591;SDS011;789;51.612;7.510;2022-12-18T13:53:11;19.50;;;14.75;;
1591;SDS011;789;51.612;7.510;2022-12-18T13:55:44;19.77;;;14.43;;
1591;SDS011;789;51.612;7.510;2022-12-18T13:58:11;18.27;;;12.77;;
1591;SDS011;789;51.612;7.510;2022-12-18T14:00:41;21.13;;;13.90;;
1591;SDS011;789;51.612;7.510;2022-12-18T14:03:15;17.80;;;12.57;;
1591;SDS011;789;51.612;7.510;2022-12-18T14:05:46;18.80;;;15.07;;
1591;SDS011;789;51.612;7.510;2022-12-18T14:08:20;19.50;;;13.13;;
1591;SDS011;789;51.612;7.510;2022-12-18T14:10:48;17.23;;;12.50;;
1591;SDS011;789;51.612;7.510;2022-12-18T14:13:18;19.07;;;14.07;;
1591;SDS011;789;51.612;7.510;2022-12-18T14:15:49;18.00;;;13.00;;
1591;SDS011;789;51.612;7.510;2022-12-18T14:18:19;21.38;;;15.30;;
1591;SDS011;789;51.612;7.510;2022-12-18T14:20:50;18.00;;;12.93;;
1591;SDS011;789;51.612;7.510;2022-12-18T14:23:25;18.37;;;12.77;;
1591;SDS011;789;51.612;7.510;2022-12-18T14:25:54;19.67;;;13.80;;
1591;SDS011;789;51.612;7.510;2022-12-18T14:28:20;20.63;;;14.70;;
1591;SDS011;789;51.612;7.510;2022-12-18T14:30:48;21.80;;;14.27;;
1591;SDS011;789;51.612;7.510;2022-12-18T14:33:16;19.07;;;14.13;;
1591;SDS011;789;51.612;7.510;2022-12-18T14:35:53;16.77;;;13.13;;
1591;SDS011;789;51.612;7.510;2022-12-18T14:38:23;14.37;;;11.67;;
1591;SDS011;789;51.612;7.510;2022-12-18T14:40:53;15.20;;;11.10;;
1591;SDS011;789;51.612;7.510;2022-12-18T14:43:25;15.40;;;11.90;;
1591;SDS011;789;51.612;7.510;2022-12-18T14:45:53;15.50;;;12.10;;
1591;SDS011;789;51.612;7.510;2022-12-18T14:48:21;17.57;;;12.30;;
1591;SDS011;789;51.612;7.510;2022-12-18T14:50:58;16.87;;;13.07;;
1591;SDS011;789;51.612;7.510;2022-12-18T14:53:31;17.90;;;11.90;;
1591;SDS011;789;51.612;7.510;2022-12-18T14:56:00;16.90;;;12.63;;
1591;SDS011;789;51.612;7.510;2022-12-18T14:58:28;20.60;;;13.00;;
1591;SDS011;789;51.612;7.510;2022-12-18T15:00:55;21.13;;;14.95;;
1591;SDS011;789;51.612;7.510;2022-12-18T15:03:22;21.65;;;14.50;;
1591;SDS011;789;51.612;7.510;2022-12-18T15:05:48;18.10;;;13.98;;
1591;SDS011;789;51.612;7.510;2022-12-18T15:08:30;19.75;;;14.15;;
1591;SDS011;789;51.612;7.510;2022-12-18T15:11:01;19.07;;;13.73;;
1591;SDS011;789;51.612;7.510;2022-12-18T15:13:28;20.90;;;16.40;;
1591;SDS011;789;51.612;7.510;2022-12-18T15:15:55;20.73;;;13.90;;
1591;SDS011;789;51.612;7.510;2022-12-18T15:18:24;18.80;;;15.27;;
1591;SDS011;789;51.612;7.510;2022-12-18T15:20:58;17.53;;;14.67;;
1591;SDS011;789;51.612;7.510;2022-12-18T15:23:35;19.37;;;15.17;;
1591;SDS011;789;51.612;7.510;2022-12-18T15:26:04;22.77;;;16.30;;
1591;SDS011;789;51.612;7.510;2022-12-18T15:28:34;20.50;;;16.40;;